sensor_id;sensor_type;location;lat;lon;timestamp;pressure;altitude;pressure_sealevel;temperature;humidity
39341;BME280;25059;52.132;21.062;2022-11-25T00:01:28;100314.94;;;-0.36;100.00
39341;BME280;25059;52.132;21.062;2022-11-25T00:04:13;100318.41;;;-0.27;100.00
39341;BME280;25059;52.132;21.062;2022-11-25T00:06:57;100325.28;;;-0.31;100.00
39341;BME280;25059;52.132;21.062;2022-11-25T00:09:42;100325.28;;;-0.32;100.00
39341;BME280;25059;52.132;21.062;2022-11-25T00:12:26;100328.72;;;-0.35;100.00
39341;BME280;25059;52.132;21.062;2022-11-25T00:15:11;100328.66;;;-0.46;100.00
39341;BME280;25059;52.132;21.062;2022-11-25T00:17:55;100326.94;;;-0.48;100.00
39341;BME280;25059;52.132;21.062;2022-11-25T00:20:40;100332.94;;;-0.51;100.00
39341;BME280;25059;52.132;21.062;2022-11-25T00:23:24;100326.06;;;-0.52;100.00
39341;BME280;25059;52.132;21.062;2022-11-25T00:26:11;100328.59;;;-0.59;100.00
39341;BME280;25059;52.132;21.062;2022-11-25T00:28:57;100340.59;;;-0.66;100.00
39341;BME280;25059;52.132;21.062;2022-11-25T00:31:42;100337.16;;;-0.67;100.00
39341;BME280;25059;52.132;21.062;2022-11-25T00:34:27;100336.25;;;-0.70;100.00
39341;BME280;25059;52.132;21.062;2022-11-25T00:37:12;100338.91;;;-0.62;100.00
39341;BME280;25059;52.132;21.062;2022-11-25T00:39:56;100352.72;;;-0.54;100.00
39341;BME280;25059;52.132;21.062;2022-11-25T00:42:41;100350.94;;;-0.61;100.00
39341;BME280;25059;52.132;21.062;2022-11-25T00:45:45;100359.56;;;-0.58;100.00
39341;BME280;25059;52.132;21.062;2022-11-25T00:48:29;100357.84;;;-0.60;100.00
39341;BME280;25059;52.132;21.062;2022-11-25T00:51:14;100357.81;;;-0.65;100.00
39341;BME280;25059;52.132;21.062;2022-11-25T00:53:59;100349.25;;;-0.56;100.00
39341;BME280;25059;52.132;21.062;2022-11-25T00:56:43;100351.94;;;-0.40;100.00
39341;BME280;25059;52.132;21.062;2022-11-25T00:59:28;100351.94;;;-0.37;100.00
39341;BME280;25059;52.132;21.062;2022-11-25T01:02:15;100353.69;;;-0.31;100.00
39341;BME280;25059;52.132;21.062;2022-11-25T01:05:00;100351.16;;;-0.25;100.00
39341;BME280;25059;52.132;21.062;2022-11-25T01:07:44;100349.41;;;-0.29;100.00
39341;BME280;25059;52.132;21.062;2022-11-25T01:10:29;100351.91;;;-0.43;100.00
39341;BME280;25059;52.132;21.062;2022-11-25T01:13:14;100359.66;;;-0.44;100.00
39341;BME280;25059;52.132;21.062;2022-11-25T01:16:01;100354.50;;;-0.41;100.00
39341;BME280;25059;52.132;21.062;2022-11-25T01:18:46;100359.63;;;-0.47;100.00
39341;BME280;25059;52.132;21.062;2022-11-25T01:21:33;100354.47;;;-0.49;100.00
39341;BME280;25059;52.132;21.062;2022-11-25T01:24:17;100361.38;;;-0.45;100.00
39341;BME280;25059;52.132;21.062;2022-11-25T01:27:02;100351.97;;;-0.34;100.00
39341;BME280;25059;52.132;21.062;2022-11-25T01:29:47;100366.63;;;-0.31;100.00
39341;BME280;25059;52.132;21.062;2022-11-25T01:32:31;100366.63;;;-0.29;100.00
39341;BME280;25059;52.132;21.062;2022-11-25T01:35:16;100371.75;;;-0.36;100.00
39341;BME280;25059;52.132;21.062;2022-11-25T01:38:01;100370.06;;;-0.30;100.00
39341;BME280;25059;52.132;21.062;2022-11-25T01:40:45;100369.19;;;-0.29;100.00
39341;BME280;25059;52.132;21.062;2022-11-25T01:43:30;100370.06;;;-0.30;100.00
39341;BME280;25059;52.132;21.062;2022-11-25T01:46:22;100366.66;;;-0.22;100.00
39341;BME280;25059;52.132;21.062;2022-11-25T01:49:13;100366.66;;;-0.25;100.00
39341;BME280;25059;52.132;21.062;2022-11-25T01:58:01;100372.66;;;-0.29;100.00
39341;BME280;25059;52.132;21.062;2022-11-25T02:00:47;100371.84;;;-0.20;100.00
39341;BME280;25059;52.132;21.062;2022-11-25T02:03:39;100370.09;;;-0.23;100.00
39341;BME280;25059;52.132;21.062;2022-11-25T02:06:28;100373.56;;;-0.19;100.00
39341;BME280;25059;52.132;21.062;2022-11-25T02:09:17;100376.16;;;-0.18;100.00
39341;BME280;25059;52.132;21.062;2022-11-25T02:12:01;100380.34;;;-0.38;100.00
39341;BME280;25059;52.132;21.062;2022-11-25T02:14:48;100388.09;;;-0.40;100.00
39341;BME280;25059;52.132;21.062;2022-11-25T02:17:33;100382.13;;;-0.28;100.00
39341;BME280;25059;52.132;21.062;2022-11-25T02:20:20;100376.97;;;-0.25;100.00
39341;BME280;25059;52.132;21.062;2022-11-25T02:25:52;100383.84;;;-0.28;100.00
39341;BME280;25059;52.132;21.062;2022-11-25T02:28:37;100382.09;;;-0.36;100.00
39341;BME280;25059;52.132;21.062;2022-11-25T02:31:22;100380.41;;;-0.29;100.00
39341;BME280;25059;52.132;21.062;2022-11-25T02:34:06;100383.81;;;-0.33;100.00
39341;BME280;25059;52.132;21.062;2022-11-25T02:36:53;100375.13;;;-0.47;100.00
39341;BME280;25059;52.132;21.062;2022-11-25T02:39:37;100375.97;;;-0.53;100.00
39341;BME280;25059;52.132;21.062;2022-11-25T02:42:22;100385.38;;;-0.59;100.00
39341;BME280;25059;52.132;21.062;2022-11-25T02:45:10;100391.41;;;-0.60;100.00
39341;BME280;25059;52.132;21.062;2022-11-25T02:47:56;100387.94;;;-0.64;100.00
39341;BME280;25059;52.132;21.062;2022-11-25T02:50:41;100387.09;;;-0.60;100.00
39341;BME280;25059;52.132;21.062;2022-11-25T02:53:26;100386.22;;;-0.65;100.00
39341;BME280;25059;52.132;21.062;2022-11-25T02:56:12;100382.78;;;-0.64;100.00
39341;BME280;25059;52.132;21.062;2022-11-25T02:58:57;100379.38;;;-0.57;100.00
39341;BME280;25059;52.132;21.062;2022-11-25T03:01:42;100388.03;;;-0.47;100.00
39341;BME280;25059;52.132;21.062;2022-11-25T03:04:27;100385.47;;;-0.44;100.00
39341;BME280;25059;52.132;21.062;2022-11-25T03:07:11;100391.47;;;-0.50;100.00
39341;BME280;25059;52.132;21.062;2022-11-25T03:09:56;100388.00;;;-0.52;100.00
39341;BME280;25059;52.132;21.062;2022-11-25T03:12:40;100393.25;;;-0.40;100.00
39341;BME280;25059;52.132;21.062;2022-11-25T03:15:25;100391.50;;;-0.45;100.00
39341;BME280;25059;52.132;21.062;2022-11-25T03:18:10;100391.50;;;-0.47;100.00
39341;BME280;25059;52.132;21.062;2022-11-25T03:20:55;100395.00;;;-0.36;100.00
39341;BME280;25059;52.132;21.062;2022-11-25T03:23:39;100396.72;;;-0.33;100.00
39341;BME280;25059;52.132;21.062;2022-11-25T03:26:24;100399.28;;;-0.38;100.00
39341;BME280;25059;52.132;21.062;2022-11-25T03:29:09;100395.00;;;-0.32;100.00
39341;BME280;25059;52.132;21.062;2022-11-25T03:31:53;100397.59;;;-0.31;100.00
39341;BME280;25059;52.132;21.062;2022-11-25T03:34:38;100401.06;;;-0.30;100.00
39341;BME280;25059;52.132;21.062;2022-11-25T03:37:23;100406.25;;;-0.23;100.00
39341;BME280;25059;52.132;21.062;2022-11-25T03:40:08;100408.88;;;-0.18;100.00
39341;BME280;25059;52.132;21.062;2022-11-25T03:42:54;100407.13;;;-0.24;100.00
39341;BME280;25059;52.132;21.062;2022-11-25T03:45:38;100410.53;;;-0.31;100.00
39341;BME280;25059;52.132;21.062;2022-11-25T03:48:23;100411.34;;;-0.40;100.00
39341;BME280;25059;52.132;21.062;2022-11-25T03:51:07;100418.19;;;-0.43;100.00
39341;BME280;25059;52.132;21.062;2022-11-25T03:53:52;100414.78;;;-0.39;100.00
39341;BME280;25059;52.132;21.062;2022-11-25T03:56:36;100419.13;;;-0.32;100.00
39341;BME280;25059;52.132;21.062;2022-11-25T03:59:21;100413.97;;;-0.32;100.00
39341;BME280;25059;52.132;21.062;2022-11-25T04:02:06;100423.47;;;-0.23;100.00
39341;BME280;25059;52.132;21.062;2022-11-25T04:04:51;100422.59;;;-0.30;100.00
39341;BME280;25059;52.132;21.062;2022-11-25T04:07:35;100425.09;;;-0.39;100.00
39341;BME280;25059;52.132;21.062;2022-11-25T04:10:20;100432.84;;;-0.42;100.00
39341;BME280;25059;52.132;21.062;2022-11-25T04:13:04;100425.97;;;-0.39;100.00
39341;BME280;25059;52.132;21.062;2022-11-25T04:15:49;100433.69;;;-0.45;100.00
39341;BME280;25059;52.132;21.062;2022-11-25T04:18:34;100435.47;;;-0.33;100.00
39341;BME280;25059;52.132;21.062;2022-11-25T04:21:19;100432.91;;;-0.31;100.00
39341;BME280;25059;52.132;21.062;2022-11-25T04:24:04;100436.41;;;-0.20;100.00
39341;BME280;25059;52.132;21.062;2022-11-25T04:26:48;100437.22;;;-0.27;100.00
39341;BME280;25059;52.132;21.062;2022-11-25T04:29:33;100439.84;;;-0.24;100.00
39341;BME280;25059;52.132;21.062;2022-11-25T04:32:17;100441.59;;;-0.20;100.00
39341;BME280;25059;52.132;21.062;2022-11-25T04:35:02;100448.47;;;-0.21;100.00
39341;BME280;25059;52.132;21.062;2022-11-25T04:37:47;100441.53;;;-0.28;100.00
39341;BME280;25059;52.132;21.062;2022-11-25T04:40:31;100456.16;;;-0.28;100.00
39341;BME280;25059;52.132;21.062;2022-11-25T04:43:16;100457.03;;;-0.26;100.00
39341;BME280;25059;52.132;21.062;2022-11-25T04:46:01;100461.28;;;-0.35;100.00
39341;BME280;25059;52.132;21.062;2022-11-25T04:48:46;100463.00;;;-0.35;100.00
39341;BME280;25059;52.132;21.062;2022-11-25T04:51:31;100461.25;;;-0.41;100.00
39341;BME280;25059;52.132;21.062;2022-11-25T04:54:16;100463.06;;;-0.29;100.00
39341;BME280;25059;52.132;21.062;2022-11-25T04:57:00;100463.78;;;-0.45;100.00
39341;BME280;25059;52.132;21.062;2022-11-25T04:59:45;100464.63;;;-0.48;100.00
39341;BME280;25059;52.132;21.062;2022-11-25T05:02:29;100466.31;;;-0.56;100.00
39341;BME280;25059;52.132;21.062;2022-11-25T05:05:14;100467.19;;;-0.52;100.00
39341;BME280;25059;52.132;21.062;2022-11-25T05:07:58;100474.13;;;-0.47;100.00
39341;BME280;25059;52.132;21.062;2022-11-25T05:10:43;100469.81;;;-0.45;100.00
39341;BME280;25059;52.132;21.062;2022-11-25T05:13:28;100473.34;;;-0.34;100.00
39341;BME280;25059;52.132;21.062;2022-11-25T05:16:12;100473.38;;;-0.29;100.00
39341;BME280;25059;52.132;21.062;2022-11-25T05:18:57;100481.13;;;-0.27;100.00
39341;BME280;25059;52.132;21.062;2022-11-25T05:21:42;100478.59;;;-0.21;100.00
39341;BME280;25059;52.132;21.062;2022-11-25T05:24:26;100484.63;;;-0.19;100.00
39341;BME280;25059;52.132;21.062;2022-11-25T05:27:11;100491.53;;;-0.18;100.00
39341;BME280;25059;52.132;21.062;2022-11-25T05:29:56;100483.69;;;-0.30;100.00
39341;BME280;25059;52.132;21.062;2022-11-25T05:32:40;100482.75;;;-0.42;100.00
39341;BME280;25059;52.132;21.062;2022-11-25T05:35:24;100482.72;;;-0.46;100.00
39341;BME280;25059;52.132;21.062;2022-11-25T05:38:09;100486.28;;;-0.32;100.00
39341;BME280;25059;52.132;21.062;2022-11-25T05:41:00;100490.59;;;-0.31;100.00
39341;BME280;25059;52.132;21.062;2022-11-25T05:43:45;100502.69;;;-0.24;100.00
39341;BME280;25059;52.132;21.062;2022-11-25T05:46:31;100501.75;;;-0.34;100.00
39341;BME280;25059;52.132;21.062;2022-11-25T05:49:16;100503.50;;;-0.32;100.00
39341;BME280;25059;52.132;21.062;2022-11-25T05:52:03;100503.56;;;-0.22;100.00
39341;BME280;25059;52.132;21.062;2022-11-25T05:54:48;100500.13;;;-0.19;100.00
39341;BME280;25059;52.132;21.062;2022-11-25T05:57:32;100501.78;;;-0.29;100.00
39341;BME280;25059;52.132;21.062;2022-11-25T06:00:18;100501.78;;;-0.30;100.00
39341;BME280;25059;52.132;21.062;2022-11-25T06:03:02;100498.34;;;-0.29;100.00
39341;BME280;25059;52.132;21.062;2022-11-25T06:05:47;100507.81;;;-0.31;100.00
39341;BME280;25059;52.132;21.062;2022-11-25T06:08:32;100502.63;;;-0.35;100.00
39341;BME280;25059;52.132;21.062;2022-11-25T06:11:17;100507.81;;;-0.28;100.00
39341;BME280;25059;52.132;21.062;2022-11-25T06:14:01;100515.59;;;-0.24;100.00
39341;BME280;25059;52.132;21.062;2022-11-25T06:16:46;100503.63;;;-0.14;100.00
39341;BME280;25059;52.132;21.062;2022-11-25T06:19:31;100508.81;;;-0.11;100.00
39341;BME280;25059;52.132;21.062;2022-11-25T06:22:15;100507.88;;;-0.21;100.00
39341;BME280;25059;52.132;21.062;2022-11-25T06:25:00;100511.41;;;-0.10;100.00
39341;BME280;25059;52.132;21.062;2022-11-25T06:27:45;100514.78;;;-0.20;100.00
39341;BME280;25059;52.132;21.062;2022-11-25T06:30:29;100512.16;;;-0.23;100.00
39341;BME280;25059;52.132;21.062;2022-11-25T06:33:14;100513.06;;;-0.18;100.00
39341;BME280;25059;52.132;21.062;2022-11-25T06:36:01;100511.41;;;-0.07;100.00
39341;BME280;25059;52.132;21.062;2022-11-25T06:38:50;100515.78;;;0.01;100.00
39341;BME280;25059;52.132;21.062;2022-11-25T06:41:35;100519.16;;;-0.07;100.00
39341;BME280;25059;52.132;21.062;2022-11-25T06:44:21;100514.00;;;-0.05;100.00
39341;BME280;25059;52.132;21.062;2022-11-25T06:47:05;100517.50;;;0.03;100.00
39341;BME280;25059;52.132;21.062;2022-11-25T06:49:50;100515.84;;;0.13;100.00
39341;BME280;25059;52.132;21.062;2022-11-25T06:52:36;100527.00;;;0.06;100.00
39341;BME280;25059;52.132;21.062;2022-11-25T06:55:21;100529.63;;;0.09;100.00
39341;BME280;25059;52.132;21.062;2022-11-25T06:58:05;100533.91;;;0.05;100.00
39341;BME280;25059;52.132;21.062;2022-11-25T07:00:50;100537.41;;;0.18;100.00
39341;BME280;25059;52.132;21.062;2022-11-25T07:03:35;100535.75;;;0.27;100.00
39341;BME280;25059;52.132;21.062;2022-11-25T07:06:20;100528.91;;;0.34;100.00
39341;BME280;25059;52.132;21.062;2022-11-25T07:09:06;100526.34;;;0.40;100.00
39341;BME280;25059;52.132;21.062;2022-11-25T07:11:51;100540.19;;;0.48;100.00
39341;BME280;25059;52.132;21.062;2022-11-25T07:14:49;100536.75;;;0.55;100.00
39341;BME280;25059;52.132;21.062;2022-11-25T07:17:45;100534.22;;;0.66;100.00
39341;BME280;25059;52.132;21.062;2022-11-25T07:20:30;100529.97;;;0.80;100.00
39341;BME280;25059;52.132;21.062;2022-11-25T07:23:16;100533.41;;;0.84;100.00
39341;BME280;25059;52.132;21.062;2022-11-25T07:26:28;100536.88;;;0.81;100.00
39341;BME280;25059;52.132;21.062;2022-11-25T07:29:37;100541.13;;;0.66;100.00
39341;BME280;25059;52.132;21.062;2022-11-25T07:32:23;100544.59;;;0.72;100.00
39341;BME280;25059;52.132;21.062;2022-11-25T07:35:08;100543.69;;;0.64;100.00
39341;BME280;25059;52.132;21.062;2022-11-25T07:37:54;100546.28;;;0.61;100.00
39341;BME280;25059;52.132;21.062;2022-11-25T07:41:08;100550.59;;;0.62;100.00
39341;BME280;25059;52.132;21.062;2022-11-25T07:43:59;100543.78;;;0.84;100.00
39341;BME280;25059;52.132;21.062;2022-11-25T07:46:57;100543.88;;;1.23;100.00
39341;BME280;25059;52.132;21.062;2022-11-25T07:49:51;100542.16;;;1.24;100.00
39341;BME280;25059;52.132;21.062;2022-11-25T07:52:47;100541.31;;;1.29;100.00
39341;BME280;25059;52.132;21.062;2022-11-25T07:55:49;100541.31;;;1.43;100.00
39341;BME280;25059;52.132;21.062;2022-11-25T07:58:36;100546.50;;;1.31;100.00
39341;BME280;25059;52.132;21.062;2022-11-25T08:05:15;100552.50;;;1.15;100.00
39341;BME280;25059;52.132;21.062;2022-11-25T08:16:28;100565.41;;;1.03;100.00
39341;BME280;25059;52.132;21.062;2022-11-25T08:19:32;100562.81;;;1.06;100.00
39341;BME280;25059;52.132;21.062;2022-11-25T08:22:19;100570.59;;;1.12;100.00
39341;BME280;25059;52.132;21.062;2022-11-25T08:25:07;100571.47;;;1.11;100.00
39341;BME280;25059;52.132;21.062;2022-11-25T08:27:59;100569.69;;;0.93;100.00
39341;BME280;25059;52.132;21.062;2022-11-25T08:30:45;100571.44;;;0.99;100.00
39341;BME280;25059;52.132;21.062;2022-11-25T08:33:34;100568.91;;;1.20;100.00
39341;BME280;25059;52.132;21.062;2022-11-25T08:36:19;100576.69;;;1.24;100.00
39341;BME280;25059;52.132;21.062;2022-11-25T08:39:06;100581.88;;;1.32;100.00
39341;BME280;25059;52.132;21.062;2022-11-25T08:42:15;100583.59;;;1.30;100.00
39341;BME280;25059;52.132;21.062;2022-11-25T08:45:15;100584.47;;;1.29;100.00
39341;BME280;25059;52.132;21.062;2022-11-25T08:48:00;100587.91;;;1.25;100.00
39341;BME280;25059;52.132;21.062;2022-11-25T08:50:50;100585.31;;;1.26;100.00
39341;BME280;25059;52.132;21.062;2022-11-25T08:53:35;100589.69;;;1.44;100.00
39341;BME280;25059;52.132;21.062;2022-11-25T08:56:26;100597.44;;;1.46;100.00
39341;BME280;25059;52.132;21.062;2022-11-25T09:16:39;100591.41;;;2.35;100.00
39341;BME280;25059;52.132;21.062;2022-11-25T09:19:24;100585.38;;;2.19;100.00
39341;BME280;25059;52.132;21.062;2022-11-25T09:22:12;100587.97;;;2.19;100.00
39341;BME280;25059;52.132;21.062;2022-11-25T09:25:00;100590.56;;;2.19;100.00
39341;BME280;25059;52.132;21.062;2022-11-25T09:27:52;100592.28;;;2.17;100.00
39341;BME280;25059;52.132;21.062;2022-11-25T09:30:40;100598.34;;;2.07;100.00
39341;BME280;25059;52.132;21.062;2022-11-25T09:38:16;100601.81;;;1.85;100.00
39341;BME280;25059;52.132;21.062;2022-11-25T10:01:06;100604.41;;;2.00;100.00
39341;BME280;25059;52.132;21.062;2022-11-25T10:04:27;100601.81;;;2.21;100.00
39341;BME280;25059;52.132;21.062;2022-11-25T10:07:20;100601.78;;;2.40;100.00
39341;BME280;25059;52.132;21.062;2022-11-25T10:10:23;100604.38;;;2.37;100.00
39341;BME280;25059;52.132;21.062;2022-11-25T10:13:18;100610.47;;;2.13;100.00
39341;BME280;25059;52.132;21.062;2022-11-25T10:16:19;100609.56;;;2.34;100.00
39341;BME280;25059;52.132;21.062;2022-11-25T10:22:27;100608.66;;;2.53;100.00
39341;BME280;25059;52.132;21.062;2022-11-25T10:28:17;100610.41;;;2.43;100.00
39341;BME280;25059;52.132;21.062;2022-11-25T10:31:11;100610.41;;;2.43;100.00
39341;BME280;25059;52.132;21.062;2022-11-25T10:37:04;100616.44;;;2.64;100.00
39341;BME280;25059;52.132;21.062;2022-11-25T10:39:52;100617.28;;;2.64;100.00
39341;BME280;25059;52.132;21.062;2022-11-25T11:03:25;100626.00;;;2.28;100.00
39341;BME280;25059;52.132;21.062;2022-11-25T11:09:32;100632.94;;;2.05;100.00
39341;BME280;25059;52.132;21.062;2022-11-25T11:15:28;100636.38;;;2.16;100.00
39341;BME280;25059;52.132;21.062;2022-11-25T11:21:23;100629.47;;;2.21;100.00
39341;BME280;25059;52.132;21.062;2022-11-25T11:24:32;100629.44;;;2.41;100.00
39341;BME280;25059;52.132;21.062;2022-11-25T11:27:23;100623.38;;;2.54;100.00
39341;BME280;25059;52.132;21.062;2022-11-25T11:30:22;100629.44;;;2.51;100.00
39341;BME280;25059;52.132;21.062;2022-11-25T11:36:32;100626.84;;;2.36;100.00
39341;BME280;25059;52.132;21.062;2022-11-25T12:00:53;100641.53;;;2.55;100.00
39341;BME280;25059;52.132;21.062;2022-11-25T12:03:57;100641.53;;;2.52;100.00
39341;BME280;25059;52.132;21.062;2022-11-25T12:07:01;100636.38;;;2.45;100.00
39341;BME280;25059;52.132;21.062;2022-11-25T12:09:53;100638.13;;;2.26;100.00
39341;BME280;25059;52.132;21.062;2022-11-25T12:15:57;100637.25;;;2.25;100.00
39341;BME280;25059;52.132;21.062;2022-11-25T12:19:22;100632.91;;;2.29;100.00
39341;BME280;25059;52.132;21.062;2022-11-25T12:22:24;100638.97;;;2.33;100.00
39341;BME280;25059;52.132;21.062;2022-11-25T12:25:34;100625.13;;;2.31;100.00
39341;BME280;25059;52.132;21.062;2022-11-25T12:28:24;100632.91;;;2.28;100.00
39341;BME280;25059;52.132;21.062;2022-11-25T12:31:28;100632.91;;;2.28;100.00
39341;BME280;25059;52.132;21.062;2022-11-25T12:34:22;100635.50;;;2.31;100.00
39341;BME280;25059;52.132;21.062;2022-11-25T12:37:19;100632.91;;;2.32;100.00
39341;BME280;25059;52.132;21.062;2022-11-25T12:40:17;100641.56;;;2.31;100.00
39341;BME280;25059;52.132;21.062;2022-11-25T12:43:44;100645.03;;;2.18;100.00
39341;BME280;25059;52.132;21.062;2022-11-25T12:46:33;100644.16;;;2.31;100.00
39341;BME280;25059;52.132;21.062;2022-11-25T12:49:32;100641.56;;;2.36;100.00
39341;BME280;25059;52.132;21.062;2022-11-25T12:52:41;100645.03;;;2.27;100.00
39341;BME280;25059;52.132;21.062;2022-11-25T12:55:30;100649.34;;;2.25;100.00
39341;BME280;25059;52.132;21.062;2022-11-25T12:58:20;100655.41;;;2.19;100.00
39341;BME280;25059;52.132;21.062;2022-11-25T13:07:28;100656.25;;;2.05;100.00
39341;BME280;25059;52.132;21.062;2022-11-25T13:16:04;100655.41;;;1.95;100.00
39341;BME280;25059;52.132;21.062;2022-11-25T13:18:49;100651.94;;;2.01;100.00
39341;BME280;25059;52.132;21.062;2022-11-25T13:21:34;100651.06;;;2.02;100.00
39341;BME280;25059;52.132;21.062;2022-11-25T13:24:39;100648.50;;;2.15;100.00
39341;BME280;25059;52.132;21.062;2022-11-25T13:27:33;100652.81;;;2.12;100.00
39341;BME280;25059;52.132;21.062;2022-11-25T13:30:37;100649.34;;;2.02;100.00
39341;BME280;25059;52.132;21.062;2022-11-25T13:36:25;100654.53;;;1.93;100.00
39341;BME280;25059;52.132;21.062;2022-11-25T13:39:34;100651.91;;;1.81;100.00
39341;BME280;25059;52.132;21.062;2022-11-25T13:42:24;100655.38;;;1.86;100.00
39341;BME280;25059;52.132;21.062;2022-11-25T13:48:16;100661.44;;;1.85;100.00
39341;BME280;25059;52.132;21.062;2022-11-25T13:51:20;100660.56;;;1.83;100.00
39341;BME280;25059;52.132;21.062;2022-11-25T13:54:14;100665.75;;;1.86;100.00
39341;BME280;25059;52.132;21.062;2022-11-25T13:57:16;100667.47;;;1.75;100.00
39341;BME280;25059;52.132;21.062;2022-11-25T14:09:13;100679.56;;;1.83;100.00
39341;BME280;25059;52.132;21.062;2022-11-25T14:27:18;100689.88;;;1.62;100.00
39341;BME280;25059;52.132;21.062;2022-11-25T14:30:06;100685.56;;;1.66;100.00
39341;BME280;25059;52.132;21.062;2022-11-25T14:32:56;100690.75;;;1.66;100.00
39341;BME280;25059;52.132;21.062;2022-11-25T14:35:49;100682.13;;;1.70;100.00
39341;BME280;25059;52.132;21.062;2022-11-25T14:38:42;100692.50;;;1.65;100.00
39341;BME280;25059;52.132;21.062;2022-11-25T14:41:34;100695.94;;;1.61;100.00
39341;BME280;25059;52.132;21.062;2022-11-25T14:44:32;100695.06;;;1.62;100.00
39341;BME280;25059;52.132;21.062;2022-11-25T14:47:21;100695.06;;;1.59;100.00
39341;BME280;25059;52.132;21.062;2022-11-25T14:50:12;100707.16;;;1.63;100.00
39341;BME280;25059;52.132;21.062;2022-11-25T14:52:58;100702.84;;;1.64;100.00
39341;BME280;25059;52.132;21.062;2022-11-25T14:55:46;100699.38;;;1.57;100.00
39341;BME280;25059;52.132;21.062;2022-11-25T14:58:39;100711.44;;;1.50;100.00
39341;BME280;25059;52.132;21.062;2022-11-25T15:01:31;100708.00;;;1.53;100.00
39341;BME280;25059;52.132;21.062;2022-11-25T15:04:20;100710.63;;;1.64;100.00
39341;BME280;25059;52.132;21.062;2022-11-25T15:07:17;100703.69;;;1.58;100.00
39341;BME280;25059;52.132;21.062;2022-11-25T15:10:26;100708.00;;;1.53;100.00
39341;BME280;25059;52.132;21.062;2022-11-25T15:13:29;100713.19;;;1.53;100.00
39341;BME280;25059;52.132;21.062;2022-11-25T15:16:17;100714.88;;;1.46;100.00
39341;BME280;25059;52.132;21.062;2022-11-25T15:19:14;100708.84;;;1.50;100.00
39341;BME280;25059;52.132;21.062;2022-11-25T15:22:03;100711.50;;;1.64;100.00
39341;BME280;25059;52.132;21.062;2022-11-25T15:24:49;100707.16;;;1.57;100.00
39341;BME280;25059;52.132;21.062;2022-11-25T15:27:42;100714.06;;;1.59;100.00
39341;BME280;25059;52.132;21.062;2022-11-25T15:30:27;100710.59;;;1.56;100.00
39341;BME280;25059;52.132;21.062;2022-11-25T15:33:16;100709.75;;;1.66;100.00
39341;BME280;25059;52.132;21.062;2022-11-25T15:36:00;100721.00;;;1.70;100.00
39341;BME280;25059;52.132;21.062;2022-11-25T15:38:45;100710.63;;;1.64;100.00
39341;BME280;25059;52.132;21.062;2022-11-25T15:41:31;100711.50;;;1.64;100.00
39341;BME280;25059;52.132;21.062;2022-11-25T15:44:20;100713.22;;;1.62;100.00
39341;BME280;25059;52.132;21.062;2022-11-25T15:50:06;100720.09;;;1.52;100.00
39341;BME280;25059;52.132;21.062;2022-11-25T15:53:00;100721.78;;;1.43;100.00
39341;BME280;25059;52.132;21.062;2022-11-25T15:55:45;100718.34;;;1.53;100.00
39341;BME280;25059;52.132;21.062;2022-11-25T15:58:29;100719.22;;;1.56;100.00
39341;BME280;25059;52.132;21.062;2022-11-25T16:04:19;100726.19;;;1.67;100.00
39341;BME280;25059;52.132;21.062;2022-11-25T16:07:21;100725.31;;;1.66;100.00
39341;BME280;25059;52.132;21.062;2022-11-25T16:16:14;100722.72;;;1.66;100.00
39341;BME280;25059;52.132;21.062;2022-11-25T16:21:50;100727.06;;;1.75;100.00
39341;BME280;25059;52.132;21.062;2022-11-25T16:24:36;100721.03;;;1.79;100.00
39341;BME280;25059;52.132;21.062;2022-11-25T16:27:24;100724.50;;;1.88;100.00
39341;BME280;25059;52.132;21.062;2022-11-25T16:30:17;100719.34;;;1.90;100.00
